Terminal Aerodrome Forecast
Issued by NWS Melbourne, FL

Home | Current Version | Previous Version | Text Only | Print | Product List | Glossary On
Versions: 1 2 3 4 5 6 7 8 9 10 11 12 13 14 15 16 17
728
FTUS42 KMLB 072320
TAFMLB
TAF
KMLB 072320Z 0800/0824 VRB03KT P6SM FEW250
     FM080900 00000KT 6SM BR MIFG FEW250
      TEMPO 0809/0813 5SM BR
     FM081500 34007KT P6SM SCT060=

USA.gov is the U.S. government's official web portal to all federal, state and local government web resources and services.